sensor_id;sensor_type;location;lat;lon;timestamp;P1;durP1;ratioP1;P2;durP2;ratioP2
74259;SDS011;62630;55.874;37.516;2023-07-13T00:01:52;2.17;;;1.50;;
74259;SDS011;62630;55.874;37.516;2023-07-13T00:04:21;1.58;;;1.30;;
74259;SDS011;62630;55.874;37.516;2023-07-13T00:06:50;2.60;;;1.45;;
74259;SDS011;62630;55.874;37.516;2023-07-13T00:09:16;2.53;;;1.20;;
74259;SDS011;62630;55.874;37.516;2023-07-13T00:11:43;2.03;;;1.38;;
74259;SDS011;62630;55.874;37.516;2023-07-13T00:14:09;1.60;;;1.45;;
74259;SDS011;62630;55.874;37.516;2023-07-13T00:16:36;1.33;;;1.17;;
74259;SDS011;62630;55.874;37.516;2023-07-13T00:19:03;3.72;;;1.85;;
74259;SDS011;62630;55.874;37.516;2023-07-13T00:21:29;2.10;;;1.30;;
74259;SDS011;62630;55.874;37.516;2023-07-13T00:23:55;3.83;;;1.73;;
74259;SDS011;62630;55.874;37.516;2023-07-13T00:26:20;3.42;;;1.80;;
74259;SDS011;62630;55.874;37.516;2023-07-13T00:28:46;2.92;;;1.50;;
74259;SDS011;62630;55.874;37.516;2023-07-13T00:31:12;2.08;;;1.58;;
74259;SDS011;62630;55.874;37.516;2023-07-13T00:33:39;2.38;;;1.45;;
74259;SDS011;62630;55.874;37.516;2023-07-13T00:36:06;5.43;;;2.05;;
74259;SDS011;62630;55.874;37.516;2023-07-13T00:38:32;1.85;;;1.60;;
74259;SDS011;62630;55.874;37.516;2023-07-13T00:40:57;2.28;;;1.80;;
74259;SDS011;62630;55.874;37.516;2023-07-13T00:43:23;2.85;;;1.90;;
74259;SDS011;62630;55.874;37.516;2023-07-13T00:48:20;7.57;;;1.75;;
74259;SDS011;62630;55.874;37.516;2023-07-13T00:50:51;2.97;;;1.40;;
74259;SDS011;62630;55.874;37.516;2023-07-13T00:53:19;1.70;;;1.60;;
74259;SDS011;62630;55.874;37.516;2023-07-13T00:55:45;1.73;;;1.50;;
74259;SDS011;62630;55.874;37.516;2023-07-13T00:58:13;3.33;;;1.40;;
74259;SDS011;62630;55.874;37.516;2023-07-13T01:00:40;3.40;;;1.58;;
74259;SDS011;62630;55.874;37.516;2023-07-13T01:03:06;2.33;;;1.70;;
74259;SDS011;62630;55.874;37.516;2023-07-13T01:05:32;4.85;;;1.45;;
74259;SDS011;62630;55.874;37.516;2023-07-13T01:08:00;4.00;;;1.63;;
74259;SDS011;62630;55.874;37.516;2023-07-13T01:10:26;3.60;;;1.58;;
74259;SDS011;62630;55.874;37.516;2023-07-13T01:12:52;3.70;;;1.55;;
74259;SDS011;62630;55.874;37.516;2023-07-13T01:15:35;3.75;;;1.50;;
74259;SDS011;62630;55.874;37.516;2023-07-13T01:18:16;1.85;;;1.45;;
74259;SDS011;62630;55.874;37.516;2023-07-13T01:23:25;3.70;;;1.63;;
74259;SDS011;62630;55.874;37.516;2023-07-13T01:25:53;1.63;;;1.33;;
74259;SDS011;62630;55.874;37.516;2023-07-13T01:28:20;1.63;;;1.30;;
74259;SDS011;62630;55.874;37.516;2023-07-13T01:30:46;3.33;;;1.88;;
74259;SDS011;62630;55.874;37.516;2023-07-13T01:33:13;4.38;;;2.20;;
74259;SDS011;62630;55.874;37.516;2023-07-13T01:38:05;3.05;;;2.00;;
74259;SDS011;62630;55.874;37.516;2023-07-13T01:40:31;2.28;;;1.70;;
74259;SDS011;62630;55.874;37.516;2023-07-13T01:42:58;1.70;;;1.60;;
74259;SDS011;62630;55.874;37.516;2023-07-13T01:45:24;3.60;;;1.88;;
74259;SDS011;62630;55.874;37.516;2023-07-13T01:47:49;4.97;;;1.80;;
74259;SDS011;62630;55.874;37.516;2023-07-13T01:50:15;2.47;;;1.60;;
74259;SDS011;62630;55.874;37.516;2023-07-13T01:52:40;2.17;;;1.50;;
74259;SDS011;62630;55.874;37.516;2023-07-13T01:55:06;1.70;;;1.50;;
74259;SDS011;62630;55.874;37.516;2023-07-13T01:57:32;2.03;;;1.45;;
74259;SDS011;62630;55.874;37.516;2023-07-13T01:59:58;4.57;;;1.67;;
74259;SDS011;62630;55.874;37.516;2023-07-13T02:02:23;3.53;;;1.67;;
74259;SDS011;62630;55.874;37.516;2023-07-13T02:04:49;2.85;;;1.70;;
74259;SDS011;62630;55.874;37.516;2023-07-13T02:07:14;3.45;;;1.60;;
74259;SDS011;62630;55.874;37.516;2023-07-13T02:09:40;7.07;;;2.88;;
74259;SDS011;62630;55.874;37.516;2023-07-13T02:12:07;3.35;;;1.65;;
74259;SDS011;62630;55.874;37.516;2023-07-13T02:14:33;3.53;;;1.90;;
74259;SDS011;62630;55.874;37.516;2023-07-13T02:16:59;7.05;;;2.80;;
74259;SDS011;62630;55.874;37.516;2023-07-13T02:19:24;4.80;;;1.63;;
74259;SDS011;62630;55.874;37.516;2023-07-13T02:21:50;3.03;;;1.90;;
74259;SDS011;62630;55.874;37.516;2023-07-13T02:24:15;3.92;;;1.63;;
74259;SDS011;62630;55.874;37.516;2023-07-13T02:26:43;2.50;;;1.60;;
74259;SDS011;62630;55.874;37.516;2023-07-13T02:29:09;2.92;;;1.92;;
74259;SDS011;62630;55.874;37.516;2023-07-13T02:31:35;4.47;;;1.65;;
74259;SDS011;62630;55.874;37.516;2023-07-13T02:34:01;4.20;;;1.67;;
74259;SDS011;62630;55.874;37.516;2023-07-13T02:36:28;5.00;;;1.80;;
74259;SDS011;62630;55.874;37.516;2023-07-13T02:38:53;5.05;;;1.60;;
74259;SDS011;62630;55.874;37.516;2023-07-13T02:41:19;3.60;;;1.58;;
74259;SDS011;62630;55.874;37.516;2023-07-13T02:43:48;4.05;;;1.60;;
74259;SDS011;62630;55.874;37.516;2023-07-13T02:46:13;2.95;;;1.95;;
74259;SDS011;62630;55.874;37.516;2023-07-13T02:48:39;2.13;;;1.70;;
74259;SDS011;62630;55.874;37.516;2023-07-13T02:51:05;3.08;;;1.65;;
74259;SDS011;62630;55.874;37.516;2023-07-13T02:53:33;4.57;;;2.08;;
74259;SDS011;62630;55.874;37.516;2023-07-13T02:55:58;7.03;;;1.70;;
74259;SDS011;62630;55.874;37.516;2023-07-13T02:58:24;2.15;;;1.70;;
74259;SDS011;62630;55.874;37.516;2023-07-13T03:00:50;5.20;;;1.70;;
74259;SDS011;62630;55.874;37.516;2023-07-13T03:03:15;5.35;;;1.98;;
74259;SDS011;62630;55.874;37.516;2023-07-13T03:05:42;3.95;;;1.90;;
74259;SDS011;62630;55.874;37.516;2023-07-13T03:08:10;4.50;;;1.52;;
74259;SDS011;62630;55.874;37.516;2023-07-13T03:10:36;2.45;;;2.08;;
74259;SDS011;62630;55.874;37.516;2023-07-13T03:13:02;2.65;;;1.80;;
74259;SDS011;62630;55.874;37.516;2023-07-13T03:15:28;3.00;;;1.75;;
74259;SDS011;62630;55.874;37.516;2023-07-13T03:17:54;3.80;;;2.00;;
74259;SDS011;62630;55.874;37.516;2023-07-13T03:20:19;3.50;;;1.85;;
74259;SDS011;62630;55.874;37.516;2023-07-13T03:22:45;2.38;;;1.73;;
74259;SDS011;62630;55.874;37.516;2023-07-13T03:25:11;4.72;;;1.70;;
74259;SDS011;62630;55.874;37.516;2023-07-13T03:27:37;3.30;;;1.77;;
74259;SDS011;62630;55.874;37.516;2023-07-13T03:30:03;4.75;;;1.80;;
74259;SDS011;62630;55.874;37.516;2023-07-13T03:34:55;2.72;;;1.80;;
74259;SDS011;62630;55.874;37.516;2023-07-13T03:37:21;2.63;;;1.90;;
74259;SDS011;62630;55.874;37.516;2023-07-13T03:39:47;3.53;;;1.90;;
74259;SDS011;62630;55.874;37.516;2023-07-13T03:42:13;4.28;;;1.60;;
74259;SDS011;62630;55.874;37.516;2023-07-13T03:44:39;3.58;;;2.10;;
74259;SDS011;62630;55.874;37.516;2023-07-13T03:47:06;3.28;;;2.13;;
74259;SDS011;62630;55.874;37.516;2023-07-13T03:49:34;5.45;;;2.13;;
74259;SDS011;62630;55.874;37.516;2023-07-13T03:51:59;3.85;;;2.15;;
74259;SDS011;62630;55.874;37.516;2023-07-13T03:54:25;8.43;;;2.75;;
74259;SDS011;62630;55.874;37.516;2023-07-13T03:56:50;3.63;;;1.98;;
74259;SDS011;62630;55.874;37.516;2023-07-13T03:59:16;4.30;;;1.83;;
74259;SDS011;62630;55.874;37.516;2023-07-13T04:01:42;2.60;;;2.03;;
74259;SDS011;62630;55.874;37.516;2023-07-13T04:04:08;2.47;;;1.58;;
74259;SDS011;62630;55.874;37.516;2023-07-13T04:06:34;3.90;;;1.63;;
74259;SDS011;62630;55.874;37.516;2023-07-13T04:09:00;2.30;;;1.70;;
74259;SDS011;62630;55.874;37.516;2023-07-13T04:11:29;7.70;;;1.98;;
74259;SDS011;62630;55.874;37.516;2023-07-13T04:13:56;5.20;;;1.90;;
74259;SDS011;62630;55.874;37.516;2023-07-13T04:16:22;2.83;;;1.73;;
74259;SDS011;62630;55.874;37.516;2023-07-13T04:18:48;6.60;;;3.42;;
74259;SDS011;62630;55.874;37.516;2023-07-13T04:21:15;4.57;;;2.20;;
74259;SDS011;62630;55.874;37.516;2023-07-13T04:23:41;2.83;;;1.90;;
74259;SDS011;62630;55.874;37.516;2023-07-13T04:26:07;4.38;;;1.55;;
74259;SDS011;62630;55.874;37.516;2023-07-13T04:28:33;4.35;;;1.80;;
74259;SDS011;62630;55.874;37.516;2023-07-13T04:30:59;3.95;;;1.80;;
74259;SDS011;62630;55.874;37.516;2023-07-13T04:33:26;4.82;;;1.80;;
74259;SDS011;62630;55.874;37.516;2023-07-13T04:35:52;5.55;;;1.88;;
74259;SDS011;62630;55.874;37.516;2023-07-13T04:38:21;3.58;;;1.98;;
74259;SDS011;62630;55.874;37.516;2023-07-13T04:40:49;4.53;;;2.10;;
74259;SDS011;62630;55.874;37.516;2023-07-13T04:43:16;5.60;;;2.05;;
74259;SDS011;62630;55.874;37.516;2023-07-13T04:45:41;5.35;;;1.67;;
74259;SDS011;62630;55.874;37.516;2023-07-13T04:48:07;8.77;;;2.67;;
74259;SDS011;62630;55.874;37.516;2023-07-13T04:50:32;2.38;;;1.70;;
74259;SDS011;62630;55.874;37.516;2023-07-13T04:52:58;3.60;;;1.60;;
74259;SDS011;62630;55.874;37.516;2023-07-13T04:55:24;3.15;;;2.15;;
74259;SDS011;62630;55.874;37.516;2023-07-13T04:57:50;2.30;;;1.60;;
74259;SDS011;62630;55.874;37.516;2023-07-13T05:00:16;2.80;;;1.90;;
74259;SDS011;62630;55.874;37.516;2023-07-13T05:02:45;2.42;;;1.60;;
74259;SDS011;62630;55.874;37.516;2023-07-13T05:05:11;3.53;;;1.88;;
74259;SDS011;62630;55.874;37.516;2023-07-13T05:07:36;5.30;;;1.92;;
74259;SDS011;62630;55.874;37.516;2023-07-13T05:10:02;3.67;;;1.92;;
74259;SDS011;62630;55.874;37.516;2023-07-13T05:12:29;3.85;;;1.83;;
74259;SDS011;62630;55.874;37.516;2023-07-13T05:14:54;3.13;;;1.60;;
74259;SDS011;62630;55.874;37.516;2023-07-13T05:17:20;3.33;;;1.92;;
74259;SDS011;62630;55.874;37.516;2023-07-13T05:19:45;4.55;;;1.65;;
74259;SDS011;62630;55.874;37.516;2023-07-13T05:22:11;12.27;;;1.80;;
74259;SDS011;62630;55.874;37.516;2023-07-13T05:24:39;4.18;;;1.77;;
74259;SDS011;62630;55.874;37.516;2023-07-13T05:27:05;4.00;;;1.67;;
74259;SDS011;62630;55.874;37.516;2023-07-13T05:29:30;7.47;;;2.10;;
74259;SDS011;62630;55.874;37.516;2023-07-13T05:31:56;2.42;;;1.67;;
74259;SDS011;62630;55.874;37.516;2023-07-13T05:34:22;4.25;;;1.98;;
74259;SDS011;62630;55.874;37.516;2023-07-13T05:36:47;2.00;;;1.65;;
74259;SDS011;62630;55.874;37.516;2023-07-13T05:39:14;6.45;;;2.08;;
74259;SDS011;62630;55.874;37.516;2023-07-13T05:41:40;4.63;;;1.95;;
74259;SDS011;62630;55.874;37.516;2023-07-13T05:44:05;4.22;;;2.00;;
74259;SDS011;62630;55.874;37.516;2023-07-13T05:46:31;3.97;;;1.83;;
74259;SDS011;62630;55.874;37.516;2023-07-13T05:48:56;2.35;;;1.75;;
74259;SDS011;62630;55.874;37.516;2023-07-13T05:51:22;4.57;;;1.80;;
74259;SDS011;62630;55.874;37.516;2023-07-13T05:53:47;5.55;;;2.10;;
74259;SDS011;62630;55.874;37.516;2023-07-13T05:56:13;4.10;;;1.80;;
74259;SDS011;62630;55.874;37.516;2023-07-13T05:58:38;5.18;;;2.00;;
74259;SDS011;62630;55.874;37.516;2023-07-13T06:01:05;9.38;;;1.90;;
74259;SDS011;62630;55.874;37.516;2023-07-13T06:03:32;8.90;;;1.83;;
74259;SDS011;62630;55.874;37.516;2023-07-13T06:05:58;2.45;;;1.65;;
74259;SDS011;62630;55.874;37.516;2023-07-13T06:08:27;4.53;;;1.83;;
74259;SDS011;62630;55.874;37.516;2023-07-13T06:10:53;4.72;;;1.65;;
74259;SDS011;62630;55.874;37.516;2023-07-13T06:13:18;3.08;;;1.85;;
74259;SDS011;62630;55.874;37.516;2023-07-13T06:15:48;3.08;;;1.70;;
74259;SDS011;62630;55.874;37.516;2023-07-13T06:18:16;6.25;;;1.52;;
74259;SDS011;62630;55.874;37.516;2023-07-13T06:20:42;2.38;;;1.60;;
74259;SDS011;62630;55.874;37.516;2023-07-13T06:23:07;2.78;;;1.75;;
74259;SDS011;62630;55.874;37.516;2023-07-13T06:25:33;8.10;;;1.77;;
74259;SDS011;62630;55.874;37.516;2023-07-13T06:27:58;4.75;;;2.08;;
74259;SDS011;62630;55.874;37.516;2023-07-13T06:30:24;5.22;;;1.48;;
74259;SDS011;62630;55.874;37.516;2023-07-13T06:32:49;4.45;;;1.50;;
74259;SDS011;62630;55.874;37.516;2023-07-13T06:35:15;2.58;;;1.58;;
74259;SDS011;62630;55.874;37.516;2023-07-13T06:37:41;5.82;;;1.80;;
74259;SDS011;62630;55.874;37.516;2023-07-13T06:40:06;5.43;;;1.83;;
74259;SDS011;62630;55.874;37.516;2023-07-13T06:42:32;7.30;;;1.98;;
74259;SDS011;62630;55.874;37.516;2023-07-13T06:44:58;8.70;;;2.30;;
74259;SDS011;62630;55.874;37.516;2023-07-13T06:47:23;7.00;;;1.75;;
74259;SDS011;62630;55.874;37.516;2023-07-13T06:49:49;4.03;;;1.70;;
74259;SDS011;62630;55.874;37.516;2023-07-13T06:52:14;6.38;;;1.60;;
74259;SDS011;62630;55.874;37.516;2023-07-13T06:54:40;2.65;;;1.60;;
74259;SDS011;62630;55.874;37.516;2023-07-13T06:57:05;3.53;;;1.83;;
74259;SDS011;62630;55.874;37.516;2023-07-13T06:59:31;2.92;;;1.85;;
74259;SDS011;62630;55.874;37.516;2023-07-13T07:01:56;7.20;;;1.75;;
74259;SDS011;62630;55.874;37.516;2023-07-13T07:04:22;8.95;;;1.70;;
74259;SDS011;62630;55.874;37.516;2023-07-13T07:06:47;2.50;;;1.55;;
74259;SDS011;62630;55.874;37.516;2023-07-13T07:09:13;6.03;;;1.80;;
74259;SDS011;62630;55.874;37.516;2023-07-13T07:11:38;5.25;;;1.52;;
74259;SDS011;62630;55.874;37.516;2023-07-13T07:14:04;8.27;;;1.90;;
74259;SDS011;62630;55.874;37.516;2023-07-13T07:16:29;8.30;;;1.80;;
74259;SDS011;62630;55.874;37.516;2023-07-13T07:18:55;9.38;;;2.10;;
74259;SDS011;62630;55.874;37.516;2023-07-13T07:21:21;7.25;;;2.15;;
74259;SDS011;62630;55.874;37.516;2023-07-13T07:23:48;4.95;;;1.80;;
74259;SDS011;62630;55.874;37.516;2023-07-13T07:26:14;6.45;;;1.65;;
74259;SDS011;62630;55.874;37.516;2023-07-13T07:28:40;8.98;;;2.15;;
74259;SDS011;62630;55.874;37.516;2023-07-13T07:31:05;4.25;;;1.75;;
74259;SDS011;62630;55.874;37.516;2023-07-13T07:33:32;8.82;;;1.70;;
74259;SDS011;62630;55.874;37.516;2023-07-13T07:35:59;5.00;;;1.90;;
74259;SDS011;62630;55.874;37.516;2023-07-13T07:38:24;2.55;;;1.70;;
74259;SDS011;62630;55.874;37.516;2023-07-13T07:40:53;9.63;;;1.73;;
74259;SDS011;62630;55.874;37.516;2023-07-13T07:43:18;6.60;;;2.05;;
74259;SDS011;62630;55.874;37.516;2023-07-13T07:45:44;3.55;;;1.80;;
74259;SDS011;62630;55.874;37.516;2023-07-13T07:48:10;8.43;;;2.05;;
74259;SDS011;62630;55.874;37.516;2023-07-13T07:50:36;1.98;;;1.65;;
74259;SDS011;62630;55.874;37.516;2023-07-13T07:53:02;7.93;;;2.10;;
74259;SDS011;62630;55.874;37.516;2023-07-13T07:55:30;5.70;;;1.95;;
74259;SDS011;62630;55.874;37.516;2023-07-13T07:57:58;3.08;;;1.85;;
74259;SDS011;62630;55.874;37.516;2023-07-13T08:00:24;4.97;;;1.67;;
74259;SDS011;62630;55.874;37.516;2023-07-13T08:02:49;2.55;;;1.50;;
74259;SDS011;62630;55.874;37.516;2023-07-13T08:05:15;3.55;;;1.75;;
74259;SDS011;62630;55.874;37.516;2023-07-13T08:07:41;2.90;;;1.50;;
74259;SDS011;62630;55.874;37.516;2023-07-13T08:10:06;4.45;;;2.00;;
74259;SDS011;62630;55.874;37.516;2023-07-13T08:12:33;9.57;;;1.92;;
74259;SDS011;62630;55.874;37.516;2023-07-13T08:15:00;3.92;;;1.80;;
74259;SDS011;62630;55.874;37.516;2023-07-13T08:17:25;7.57;;;2.10;;
74259;SDS011;62630;55.874;37.516;2023-07-13T08:19:54;3.72;;;1.73;;
74259;SDS011;62630;55.874;37.516;2023-07-13T08:22:20;3.65;;;2.25;;
74259;SDS011;62630;55.874;37.516;2023-07-13T08:24:45;7.40;;;2.22;;
74259;SDS011;62630;55.874;37.516;2023-07-13T08:27:12;7.68;;;2.10;;
74259;SDS011;62630;55.874;37.516;2023-07-13T08:29:38;5.22;;;1.90;;
74259;SDS011;62630;55.874;37.516;2023-07-13T08:32:05;5.72;;;2.85;;
74259;SDS011;62630;55.874;37.516;2023-07-13T08:34:34;2.38;;;1.77;;
74259;SDS011;62630;55.874;37.516;2023-07-13T08:37:02;4.20;;;1.98;;
74259;SDS011;62630;55.874;37.516;2023-07-13T08:39:29;2.58;;;1.67;;
74259;SDS011;62630;55.874;37.516;2023-07-13T08:44:57;7.40;;;2.05;;
74259;SDS011;62630;55.874;37.516;2023-07-13T08:47:22;10.60;;;2.35;;
74259;SDS011;62630;55.874;37.516;2023-07-13T08:49:49;2.88;;;1.73;;
74259;SDS011;62630;55.874;37.516;2023-07-13T08:54:55;8.75;;;2.25;;
74259;SDS011;62630;55.874;37.516;2023-07-13T08:57:25;8.20;;;2.33;;
74259;SDS011;62630;55.874;37.516;2023-07-13T08:59:56;7.40;;;2.03;;
74259;SDS011;62630;55.874;37.516;2023-07-13T09:02:28;5.75;;;2.00;;
74259;SDS011;62630;55.874;37.516;2023-07-13T09:05:04;3.65;;;1.98;;
74259;SDS011;62630;55.874;37.516;2023-07-13T09:14:06;5.95;;;2.00;;
74259;SDS011;62630;55.874;37.516;2023-07-13T09:16:51;4.63;;;1.90;;
74259;SDS011;62630;55.874;37.516;2023-07-13T09:19:21;6.38;;;2.20;;
74259;SDS011;62630;55.874;37.516;2023-07-13T09:21:51;6.68;;;2.10;;
74259;SDS011;62630;55.874;37.516;2023-07-13T09:24:31;3.47;;;2.05;;
74259;SDS011;62630;55.874;37.516;2023-07-13T09:27:12;3.70;;;2.10;;
74259;SDS011;62630;55.874;37.516;2023-07-13T09:29:45;4.05;;;2.70;;
74259;SDS011;62630;55.874;37.516;2023-07-13T09:32:14;3.30;;;2.33;;
74259;SDS011;62630;55.874;37.516;2023-07-13T09:34:50;8.75;;;2.05;;
74259;SDS011;62630;55.874;37.516;2023-07-13T09:37:17;4.40;;;2.63;;
74259;SDS011;62630;55.874;37.516;2023-07-13T09:39:44;2.88;;;1.92;;
74259;SDS011;62630;55.874;37.516;2023-07-13T09:44:37;5.30;;;2.47;;
74259;SDS011;62630;55.874;37.516;2023-07-13T09:47:15;7.40;;;2.10;;
74259;SDS011;62630;55.874;37.516;2023-07-13T09:49:42;6.80;;;2.47;;
74259;SDS011;62630;55.874;37.516;2023-07-13T09:52:13;3.30;;;2.28;;
74259;SDS011;62630;55.874;37.516;2023-07-13T09:54:44;9.13;;;2.72;;
74259;SDS011;62630;55.874;37.516;2023-07-13T09:57:22;6.70;;;2.58;;
74259;SDS011;62630;55.874;37.516;2023-07-13T09:59:49;3.72;;;2.53;;
74259;SDS011;62630;55.874;37.516;2023-07-13T10:02:29;2.30;;;2.03;;
74259;SDS011;62630;55.874;37.516;2023-07-13T10:05:03;4.88;;;2.20;;
74259;SDS011;62630;55.874;37.516;2023-07-13T10:07:31;4.78;;;2.70;;
74259;SDS011;62630;55.874;37.516;2023-07-13T10:10:03;5.50;;;2.45;;
74259;SDS011;62630;55.874;37.516;2023-07-13T10:12:29;8.60;;;2.83;;
74259;SDS011;62630;55.874;37.516;2023-07-13T10:15:00;5.38;;;2.20;;
74259;SDS011;62630;55.874;37.516;2023-07-13T10:17:30;6.85;;;2.70;;
74259;SDS011;62630;55.874;37.516;2023-07-13T10:20:06;5.57;;;2.25;;
74259;SDS011;62630;55.874;37.516;2023-07-13T10:22:39;3.33;;;2.30;;
74259;SDS011;62630;55.874;37.516;2023-07-13T10:25:50;7.75;;;2.75;;
74259;SDS011;62630;55.874;37.516;2023-07-13T10:28:02;3.65;;;2.45;;
74259;SDS011;62630;55.874;37.516;2023-07-13T10:30:39;4.65;;;2.50;;
74259;SDS011;62630;55.874;37.516;2023-07-13T10:33:11;3.42;;;2.28;;
74259;SDS011;62630;55.874;37.516;2023-07-13T10:35:39;4.28;;;2.90;;
74259;SDS011;62630;55.874;37.516;2023-07-13T10:38:11;6.68;;;2.40;;
74259;SDS011;62630;55.874;37.516;2023-07-13T10:40:50;5.22;;;2.45;;
74259;SDS011;62630;55.874;37.516;2023-07-13T10:43:24;3.72;;;2.63;;
74259;SDS011;62630;55.874;37.516;2023-07-13T10:45:53;3.55;;;2.38;;
74259;SDS011;62630;55.874;37.516;2023-07-13T10:48:19;3.60;;;1.88;;
74259;SDS011;62630;55.874;37.516;2023-07-13T10:50:48;5.85;;;2.45;;
74259;SDS011;62630;55.874;37.516;2023-07-13T10:55:54;5.07;;;2.45;;
74259;SDS011;62630;55.874;37.516;2023-07-13T11:01:10;3.35;;;2.33;;
74259;SDS011;62630;55.874;37.516;2023-07-13T11:06:14;3.65;;;1.90;;
74259;SDS011;62630;55.874;37.516;2023-07-13T11:18:46;3.72;;;2.00;;
74259;SDS011;62630;55.874;37.516;2023-07-13T11:21:20;2.72;;;1.92;;
74259;SDS011;62630;55.874;37.516;2023-07-13T11:23:52;2.05;;;1.75;;
74259;SDS011;62630;55.874;37.516;2023-07-13T11:31:43;4.35;;;2.00;;
74259;SDS011;62630;55.874;37.516;2023-07-13T11:34:18;3.88;;;2.00;;
74259;SDS011;62630;55.874;37.516;2023-07-13T11:36:51;3.75;;;2.15;;
74259;SDS011;62630;55.874;37.516;2023-07-13T11:39:21;3.53;;;1.90;;
74259;SDS011;62630;55.874;37.516;2023-07-13T11:42:00;3.45;;;2.35;;
74259;SDS011;62630;55.874;37.516;2023-07-13T11:44:29;4.57;;;2.40;;
74259;SDS011;62630;55.874;37.516;2023-07-13T11:46:59;8.80;;;2.55;;
74259;SDS011;62630;55.874;37.516;2023-07-13T11:49:42;5.95;;;2.25;;
74259;SDS011;62630;55.874;37.516;2023-07-13T11:52:21;11.65;;;2.40;;
74259;SDS011;62630;55.874;37.516;2023-07-13T11:54:54;4.63;;;2.08;;
74259;SDS011;62630;55.874;37.516;2023-07-13T11:59:53;3.25;;;2.22;;
74259;SDS011;62630;55.874;37.516;2023-07-13T12:04:51;6.95;;;2.33;;
74259;SDS011;62630;55.874;37.516;2023-07-13T12:07:17;8.85;;;2.47;;
74259;SDS011;62630;55.874;37.516;2023-07-13T12:09:44;4.70;;;2.08;;
74259;SDS011;62630;55.874;37.516;2023-07-13T12:12:14;5.82;;;2.92;;
74259;SDS011;62630;55.874;37.516;2023-07-13T12:14:42;5.40;;;2.72;;
74259;SDS011;62630;55.874;37.516;2023-07-13T12:17:09;4.97;;;2.60;;
74259;SDS011;62630;55.874;37.516;2023-07-13T12:22:11;5.05;;;2.78;;
74259;SDS011;62630;55.874;37.516;2023-07-13T12:24:38;5.38;;;3.30;;
74259;SDS011;62630;55.874;37.516;2023-07-13T12:27:05;6.10;;;2.75;;
74259;SDS011;62630;55.874;37.516;2023-07-13T12:29:32;3.55;;;2.17;;
74259;SDS011;62630;55.874;37.516;2023-07-13T12:31:58;4.38;;;2.28;;
74259;SDS011;62630;55.874;37.516;2023-07-13T12:34:25;10.02;;;3.47;;
74259;SDS011;62630;55.874;37.516;2023-07-13T12:39:33;5.47;;;3.42;;
74259;SDS011;62630;55.874;37.516;2023-07-13T12:44:50;9.82;;;2.95;;
74259;SDS011;62630;55.874;37.516;2023-07-13T12:47:20;7.75;;;2.97;;
74259;SDS011;62630;55.874;37.516;2023-07-13T12:49:58;3.83;;;2.70;;
74259;SDS011;62630;55.874;37.516;2023-07-13T12:52:30;4.75;;;2.55;;
74259;SDS011;62630;55.874;37.516;2023-07-13T12:55:39;7.82;;;2.70;;
74259;SDS011;62630;55.874;37.516;2023-07-13T12:57:55;10.65;;;3.38;;
74259;SDS011;62630;55.874;37.516;2023-07-13T13:00:32;10.63;;;4.00;;
74259;SDS011;62630;55.874;37.516;2023-07-13T13:03:05;4.30;;;2.65;;
74259;SDS011;62630;55.874;37.516;2023-07-13T13:05:44;4.55;;;2.70;;
74259;SDS011;62630;55.874;37.516;2023-07-13T13:08:11;9.60;;;2.67;;
74259;SDS011;62630;55.874;37.516;2023-07-13T13:10:36;5.35;;;2.33;;
74259;SDS011;62630;55.874;37.516;2023-07-13T13:13:02;8.18;;;2.58;;
74259;SDS011;62630;55.874;37.516;2023-07-13T13:15:28;8.23;;;3.13;;
74259;SDS011;62630;55.874;37.516;2023-07-13T13:17:55;3.90;;;2.85;;
74259;SDS011;62630;55.874;37.516;2023-07-13T13:20:21;5.25;;;2.70;;
74259;SDS011;62630;55.874;37.516;2023-07-13T13:22:48;4.93;;;2.70;;
74259;SDS011;62630;55.874;37.516;2023-07-13T13:25:14;7.45;;;2.60;;
74259;SDS011;62630;55.874;37.516;2023-07-13T13:27:40;5.22;;;2.78;;
74259;SDS011;62630;55.874;37.516;2023-07-13T13:30:10;9.07;;;4.03;;
74259;SDS011;62630;55.874;37.516;2023-07-13T13:32:38;3.60;;;2.63;;
74259;SDS011;62630;55.874;37.516;2023-07-13T13:35:04;5.95;;;2.20;;
74259;SDS011;62630;55.874;37.516;2023-07-13T13:37:33;7.75;;;3.10;;
74259;SDS011;62630;55.874;37.516;2023-07-13T13:39:59;4.75;;;2.30;;
74259;SDS011;62630;55.874;37.516;2023-07-13T13:42:25;6.68;;;2.38;;
74259;SDS011;62630;55.874;37.516;2023-07-13T13:44:52;3.80;;;2.50;;
74259;SDS011;62630;55.874;37.516;2023-07-13T13:47:24;4.78;;;2.70;;
74259;SDS011;62630;55.874;37.516;2023-07-13T13:52:17;4.57;;;2.10;;
74259;SDS011;62630;55.874;37.516;2023-07-13T13:54:43;4.50;;;2.17;;
74259;SDS011;62630;55.874;37.516;2023-07-13T13:57:09;4.93;;;2.10;;
74259;SDS011;62630;55.874;37.516;2023-07-13T13:59:37;13.15;;;2.42;;
74259;SDS011;62630;55.874;37.516;2023-07-13T14:04:44;3.15;;;2.22;;
74259;SDS011;62630;55.874;37.516;2023-07-13T14:07:10;3.53;;;2.00;;
74259;SDS011;62630;55.874;37.516;2023-07-13T14:09:35;6.25;;;2.63;;
74259;SDS011;62630;55.874;37.516;2023-07-13T14:12:01;5.38;;;2.20;;
74259;SDS011;62630;55.874;37.516;2023-07-13T14:14:26;4.10;;;1.90;;
74259;SDS011;62630;55.874;37.516;2023-07-13T14:16:53;5.85;;;2.45;;
74259;SDS011;62630;55.874;37.516;2023-07-13T14:19:21;4.57;;;2.65;;
74259;SDS011;62630;55.874;37.516;2023-07-13T14:21:47;10.70;;;1.92;;
74259;SDS011;62630;55.874;37.516;2023-07-13T14:24:14;3.58;;;1.90;;
74259;SDS011;62630;55.874;37.516;2023-07-13T14:26:40;7.85;;;2.65;;
74259;SDS011;62630;55.874;37.516;2023-07-13T14:31:38;4.90;;;2.35;;
74259;SDS011;62630;55.874;37.516;2023-07-13T14:34:04;6.88;;;3.22;;
74259;SDS011;62630;55.874;37.516;2023-07-13T14:36:33;4.85;;;2.85;;
74259;SDS011;62630;55.874;37.516;2023-07-13T14:39:09;5.10;;;3.20;;
74259;SDS011;62630;55.874;37.516;2023-07-13T14:41:37;3.55;;;2.47;;
74259;SDS011;62630;55.874;37.516;2023-07-13T14:44:12;6.30;;;2.88;;
74259;SDS011;62630;55.874;37.516;2023-07-13T14:46:42;4.25;;;2.53;;
74259;SDS011;62630;55.874;37.516;2023-07-13T14:52:09;4.68;;;2.20;;
74259;SDS011;62630;55.874;37.516;2023-07-13T14:54:37;3.78;;;2.30;;
74259;SDS011;62630;55.874;37.516;2023-07-13T14:57:15;4.25;;;2.55;;
74259;SDS011;62630;55.874;37.516;2023-07-13T14:59:43;5.38;;;1.85;;
74259;SDS011;62630;55.874;37.516;2023-07-13T15:04:54;2.90;;;1.75;;
74259;SDS011;62630;55.874;37.516;2023-07-13T15:07:20;3.13;;;1.70;;
74259;SDS011;62630;55.874;37.516;2023-07-13T15:09:46;3.95;;;2.17;;
74259;SDS011;62630;55.874;37.516;2023-07-13T15:12:13;4.82;;;2.28;;
74259;SDS011;62630;55.874;37.516;2023-07-13T15:14:38;7.07;;;3.30;;
74259;SDS011;62630;55.874;37.516;2023-07-13T15:17:05;3.65;;;2.20;;
74259;SDS011;62630;55.874;37.516;2023-07-13T15:19:46;8.18;;;2.30;;
74259;SDS011;62630;55.874;37.516;2023-07-13T15:22:12;4.70;;;2.47;;
74259;SDS011;62630;55.874;37.516;2023-07-13T15:24:37;3.83;;;2.28;;
74259;SDS011;62630;55.874;37.516;2023-07-13T15:27:04;5.18;;;2.28;;
74259;SDS011;62630;55.874;37.516;2023-07-13T15:29:34;4.47;;;2.20;;
74259;SDS011;62630;55.874;37.516;2023-07-13T15:32:00;4.70;;;1.98;;
74259;SDS011;62630;55.874;37.516;2023-07-13T15:34:25;5.05;;;2.40;;
74259;SDS011;62630;55.874;37.516;2023-07-13T15:36:51;6.25;;;2.42;;
74259;SDS011;62630;55.874;37.516;2023-07-13T15:39:17;6.05;;;2.47;;
74259;SDS011;62630;55.874;37.516;2023-07-13T15:41:43;2.65;;;1.85;;
74259;SDS011;62630;55.874;37.516;2023-07-13T15:44:33;3.28;;;2.25;;
74259;SDS011;62630;55.874;37.516;2023-07-13T15:46:59;4.65;;;2.05;;
74259;SDS011;62630;55.874;37.516;2023-07-13T15:49:25;3.97;;;2.17;;
74259;SDS011;62630;55.874;37.516;2023-07-13T15:51:51;4.55;;;2.00;;